Back to Top
Banner_Quays_at_Mast_2020.jpeg
previous arrow
next arrow

Port Arrivals Report (AIS)

This report is generated from collected AIS (Automated Identification System) signals from vessels entering port.

IMO MMSI Class Flag Vessel Name Vessel type Nav Status Destination Call Sign Latitude Longitude Speed (kts) Course (T) Draught (m) LOA (m) Beam (m) Timestamp
0 227447490 B FR MALOERA SAILING. - 51.6879 -8.49849 5.9 13.6 0 13 5 2026-08-14 16:58:11
0 235112901 B GB LORNA DOONE SAILING. - 2IUK5 51.6885 -8.49884 4.5 350.6 0 13 4 2026-08-14 16:36:03
0 250005171 B IE BRAVEHEART SAILING. - EI-UA-8 51.6871 -8.50023 4.1 339.3 0 8 2 2026-08-14 15:08:28
0 232041642 B GB CALAO SAILING. - MLIZ7 51.6873 -8.49965 3.2 346.3 0 14 4 2026-08-14 15:06:06
0 232034058 B GB NAISSO Pleasure craft - MNQM5 51.688 -8.49789 5 3.3 0 11 4 2026-08-14 14:05:20
0 250014182 A IE LADY CATHERINE PASSENGER. - EIA2647 51.6882 -8.49874 9.1 338.5 0 0 0 2026-08-14 13:44:56
0 250000954 A IE JENNY M FISHING. Engaged in Fishing EIBN6 51.6883 -8.49924 8.1 344.7 0 19 5 2026-08-14 04:05:33
0 235061128 B GB LATIMER LADY SAILING. - 2AMV6 51.6872 -8.50024 5 349.9 0 13 4 2026-08-13 20:36:43
0 250129460 B IE SHARPSHOOTER TANKER. - EI 5069 51.6906 -8.50052 10.3 346.9 0 12 4 2026-08-13 17:54:06
0 227136450 B FR TREZKAO SAILING. - FJ4792 51.6872 -8.49853 5.5 352.7 0 9 4 2026-08-13 14:50:46
0 250003953 B IE ALICE AGAIN FISHING. - EI8857 51.6877 -8.4973 7.8 333.6 0 10 4 2026-08-13 14:10:13
0 250014182 A IE LADY CATHERINE PASSENGER. - EIA2647 51.6885 -8.49838 10 341.7 0 0 0 2026-08-13 13:36:43
0 250001828 A IE EMILIJA SAILING. Moored EIHU-6 51.688 -8.49907 7.3 344.8 2.3 16 4 2026-08-13 13:01:06
0 368246290 B US DEJA BLUE SAILING. - WDM8769 51.6879 -8.49732 5.6 350.5 0 15 5 2026-08-13 12:07:59
0 250006183 A IE HARVEST REAPER II FISHING. - BALTIMORE EI-XW-3 51.6872 -8.49825 6.5 356.6 3 17 6 2026-08-13 11:03:03
0 250014182 A IE LADY CATHERINE PASSENGER. - EIA2647 51.6895 -8.4982 9.2 358.9 0 0 0 2026-08-12 20:25:20
0 250006035 B IE VALFREYA SAILING. - EI-XB-6 51.6873 -8.50161 1.8 347.4 0 10 3 2026-08-12 20:09:07
0 250004059 B IE JUSTUS SAILING. - EI-RR-6 51.6876 -8.50075 3.4 349.4 0 11 3 2026-08-12 20:07:06
0 250001875 B IE REAVRA TOO SAILING. - EIHT4 51.6872 -8.50084 2.7 6.3 0 0 0 2026-08-12 20:05:40
0 227369590 B FR LOMASYPA TOO Pleasure craft - FAD2050 51.6877 -8.50164 10 301.1 0 0 0 2026-08-12 19:50:28